createdAt,value
2023-04-26T00:02:05.180Z,4.68
2023-04-26T00:04:34.181Z,3.38
2023-04-26T00:07:01.817Z,3.47
2023-04-26T00:09:29.691Z,4.65
2023-04-26T00:11:57.509Z,4.13
2023-04-26T00:14:25.093Z,4.65
2023-04-26T00:16:52.604Z,4.70
2023-04-26T00:19:21.378Z,5.75
2023-04-26T00:21:48.809Z,5.00
2023-04-26T00:24:16.422Z,5.35
2023-04-26T00:26:43.933Z,4.65
2023-04-26T00:29:11.702Z,5.00
2023-04-26T00:31:40.337Z,6.32
2023-04-26T00:34:08.067Z,5.03
2023-04-26T00:36:35.771Z,5.40
2023-04-26T00:39:03.670Z,4.57
2023-04-26T00:41:31.706Z,5.32
2023-04-26T00:43:59.319Z,6.75
2023-04-26T00:46:28.897Z,5.18
2023-04-26T00:48:57.481Z,5.85
2023-04-26T00:51:25.075Z,6.03
2023-04-26T00:53:52.578Z,7.15
2023-04-26T00:56:21.264Z,6.32
2023-04-26T00:58:48.676Z,6.35
2023-04-26T01:01:16.149Z,6.00
2023-04-26T01:03:45.756Z,6.53
2023-04-26T01:06:13.480Z,7.85
2023-04-26T01:08:41.568Z,6.85
2023-04-26T01:11:09.187Z,7.05
2023-04-26T01:13:37.648Z,8.13
2023-04-26T01:16:08.107Z,7.03
2023-04-26T01:18:36.141Z,7.15
2023-04-26T01:21:05.002Z,7.85
2023-04-26T01:23:32.557Z,6.47
2023-04-26T01:26:00.165Z,6.95
2023-04-26T01:28:27.735Z,8.00
2023-04-26T01:30:55.388Z,6.65
2023-04-26T01:33:23.760Z,7.13
2023-04-26T01:35:52.701Z,7.40
2023-04-26T01:38:20.814Z,8.00
2023-04-26T01:40:48.367Z,7.68
2023-04-26T01:43:18.410Z,9.18
2023-04-26T01:45:49.038Z,6.82
2023-04-26T01:48:32.041Z,6.78
2023-04-26T01:51:02.109Z,7.82
2023-04-26T01:53:29.547Z,7.63
2023-04-26T01:56:01.934Z,6.93
2023-04-26T01:58:32.089Z,8.15
2023-04-26T02:01:09.398Z,7.65
2023-04-26T02:03:38.290Z,7.70
2023-04-26T02:06:06.002Z,8.45
2023-04-26T02:08:33.602Z,6.72
2023-04-26T02:11:01.517Z,6.78
2023-04-26T02:13:31.190Z,8.85
2023-04-26T02:15:59.674Z,8.10
2023-04-26T02:18:27.590Z,8.52
2023-04-26T02:20:55.492Z,6.68
2023-04-26T02:23:24.276Z,9.52
2023-04-26T02:25:51.941Z,7.68
2023-04-26T02:28:19.632Z,8.77
2023-04-26T02:30:47.678Z,8.00
2023-04-26T02:33:15.160Z,7.70
2023-04-26T02:35:42.662Z,6.97
2023-04-26T02:38:11.464Z,8.70
2023-04-26T02:40:38.903Z,8.10
2023-04-26T02:43:07.329Z,7.78
2023-04-26T02:45:34.773Z,8.27
2023-04-26T02:48:02.361Z,6.32
2023-04-26T02:50:29.885Z,7.80
2023-04-26T02:52:57.331Z,8.55
2023-04-26T02:55:24.759Z,7.78
2023-04-26T02:57:52.519Z,9.10
2023-04-26T03:00:20.182Z,8.18
2023-04-26T03:02:48.508Z,9.30
2023-04-26T03:05:19.985Z,9.73
2023-04-26T03:07:47.412Z,8.75
2023-04-26T03:10:14.952Z,7.20
2023-04-26T03:12:42.507Z,8.45
2023-04-26T03:15:10.715Z,8.00
2023-04-26T03:17:40.336Z,11.07
2023-04-26T03:20:08.407Z,7.32
2023-04-26T03:22:36.316Z,8.02
2023-04-26T03:25:05.503Z,9.40
2023-04-26T03:27:33.974Z,9.52
2023-04-26T03:30:01.764Z,9.60
2023-04-26T03:32:31.241Z,7.25
2023-04-26T03:34:58.897Z,8.48
2023-04-26T03:37:26.405Z,7.30
2023-04-26T03:40:00.017Z,7.85
2023-04-26T03:42:27.477Z,8.77
2023-04-26T03:44:55.239Z,7.25
2023-04-26T03:47:23.526Z,9.43
2023-04-26T03:49:51.507Z,7.43
2023-04-26T03:52:19.813Z,7.55
2023-04-26T03:54:48.008Z,7.78
2023-04-26T03:57:15.666Z,8.80
2023-04-26T03:59:43.291Z,8.07
2023-04-26T04:02:10.932Z,6.03
2023-04-26T04:04:38.565Z,6.22
2023-04-26T04:07:06.783Z,7.43
2023-04-26T04:09:34.914Z,10.23
2023-04-26T04:12:02.994Z,6.88
2023-04-26T04:14:30.497Z,7.28
2023-04-26T04:16:59.405Z,6.22
2023-04-26T04:19:27.557Z,6.03
2023-04-26T04:21:56.244Z,8.38
2023-04-26T04:24:25.625Z,6.22
2023-04-26T04:26:53.389Z,6.32
2023-04-26T04:29:21.416Z,6.00
2023-04-26T04:31:49.081Z,6.45
2023-04-26T04:34:16.559Z,6.47
2023-04-26T04:36:44.744Z,7.05
2023-04-26T04:39:16.069Z,7.82
2023-04-26T04:41:50.472Z,8.40
2023-04-26T04:44:20.701Z,7.07
2023-04-26T04:46:48.478Z,8.05
2023-04-26T04:49:16.269Z,5.75
2023-04-26T04:51:43.912Z,6.68
2023-04-26T04:54:21.308Z,7.07
2023-04-26T04:56:49.140Z,6.80
2023-04-26T04:59:17.550Z,6.30
2023-04-26T05:01:45.543Z,6.60
2023-04-26T05:04:15.574Z,7.38
2023-04-26T05:06:44.002Z,6.03
2023-04-26T05:09:12.255Z,7.47
2023-04-26T05:11:39.757Z,6.25
2023-04-26T05:14:09.057Z,5.22
2023-04-26T05:16:38.450Z,6.93
2023-04-26T05:19:08.691Z,6.57
2023-04-26T05:21:37.324Z,6.75
2023-04-26T05:24:05.003Z,5.40
2023-04-26T05:26:35.762Z,6.45
2023-04-26T05:29:22.090Z,7.32
2023-04-26T05:32:01.754Z,8.57
2023-04-26T05:34:55.754Z,6.28
2023-04-26T05:37:23.282Z,6.20
2023-04-26T05:39:51.082Z,6.68
2023-04-26T05:42:18.609Z,5.47
2023-04-26T05:44:46.391Z,7.78
2023-04-26T05:47:13.911Z,6.95
2023-04-26T05:49:41.448Z,6.60
2023-04-26T05:52:08.964Z,6.25
2023-04-26T05:54:37.760Z,5.43
2023-04-26T05:57:05.781Z,5.70
2023-04-26T05:59:36.894Z,6.00
2023-04-26T06:04:32.825Z,6.63
2023-04-26T06:07:07.091Z,6.93
2023-04-26T06:09:34.663Z,6.03
2023-04-26T06:12:02.578Z,6.80
2023-04-26T06:14:31.548Z,7.18
2023-04-26T06:17:04.749Z,5.40
2023-04-26T06:19:32.405Z,6.00
2023-04-26T06:21:59.954Z,8.93
2023-04-26T06:24:28.233Z,6.70
2023-04-26T06:26:55.758Z,6.63
2023-04-26T06:29:23.250Z,6.43
2023-04-26T06:31:50.777Z,6.97
2023-04-26T06:34:20.792Z,7.32
2023-04-26T06:36:48.363Z,7.03
2023-04-26T06:39:17.206Z,7.38
2023-04-26T06:41:45.079Z,7.18
2023-04-26T06:44:13.116Z,7.13
2023-04-26T06:46:43.728Z,7.47
2023-04-26T06:49:11.780Z,7.85
2023-04-26T06:51:39.237Z,6.65
2023-04-26T06:54:06.892Z,6.43
2023-04-26T06:56:34.279Z,6.40
2023-04-26T06:59:04.060Z,7.90
2023-04-26T07:01:35.745Z,6.90
2023-04-26T07:04:04.929Z,6.20
2023-04-26T07:06:32.631Z,5.85
2023-04-26T07:09:01.563Z,6.60
2023-04-26T07:11:29.583Z,7.28
2023-04-26T07:13:57.596Z,7.25
2023-04-26T07:16:26.329Z,5.75
2023-04-26T07:18:53.873Z,6.55
2023-04-26T07:21:21.330Z,7.38
2023-04-26T07:23:48.826Z,6.35
2023-04-26T07:26:16.322Z,6.43
2023-04-26T07:28:43.766Z,6.95
2023-04-26T07:31:11.272Z,7.43
2023-04-26T07:33:38.920Z,6.88
2023-04-26T07:36:06.680Z,7.68
2023-04-26T07:38:34.215Z,6.07
2023-04-26T07:41:01.778Z,6.60
2023-04-26T07:43:31.279Z,7.00
2023-04-26T07:46:02.424Z,6.97
2023-04-26T07:48:30.065Z,6.78
2023-04-26T07:50:57.730Z,6.93
2023-04-26T07:53:25.288Z,8.32
2023-04-26T07:55:52.851Z,7.55
2023-04-26T07:58:21.567Z,6.35
2023-04-26T08:00:49.186Z,6.10
2023-04-26T08:03:18.040Z,6.22
2023-04-26T08:05:46.389Z,5.95
2023-04-26T08:08:14.056Z,5.80
2023-04-26T08:10:42.631Z,5.68
2023-04-26T08:13:10.150Z,7.00
2023-04-26T08:15:37.782Z,6.13
2023-04-26T08:18:05.520Z,5.53
2023-04-26T08:20:33.176Z,5.93
2023-04-26T08:23:00.810Z,6.13
2023-04-26T08:25:28.521Z,5.40
2023-04-26T08:27:56.017Z,6.10
2023-04-26T08:30:23.840Z,5.75
2023-04-26T08:32:51.408Z,5.13
2023-04-26T08:35:19.193Z,6.05
2023-04-26T08:37:47.513Z,5.18
2023-04-26T08:40:17.521Z,5.50
2023-04-26T08:42:45.093Z,5.53
2023-04-26T08:45:12.725Z,4.97
2023-04-26T08:47:51.598Z,6.20
2023-04-26T08:50:23.484Z,3.63
2023-04-26T08:52:52.563Z,6.05
2023-04-26T08:55:21.729Z,5.13
2023-04-26T08:57:50.775Z,5.03
2023-04-26T09:00:19.824Z,6.82
2023-04-26T09:02:52.985Z,5.20
2023-04-26T09:05:24.296Z,4.30
2023-04-26T09:10:23.292Z,5.07
2023-04-26T09:12:54.590Z,5.72
2023-04-26T09:15:23.281Z,4.32
2023-04-26T09:17:51.925Z,5.13
2023-04-26T09:20:22.916Z,3.88
2023-04-26T09:22:52.990Z,3.90
2023-04-26T09:25:28.749Z,4.50
2023-04-26T09:27:56.454Z,5.25
2023-04-26T09:30:24.289Z,5.32
2023-04-26T09:33:09.961Z,3.80
2023-04-26T09:35:39.349Z,3.80
2023-04-26T09:38:15.626Z,4.10
2023-04-26T09:40:47.261Z,4.13
2023-04-26T09:43:22.426Z,3.47
2023-04-26T09:45:58.017Z,3.33
2023-04-26T09:48:26.894Z,4.43
2023-04-26T09:50:59.580Z,5.10
2023-04-26T09:53:39.965Z,5.95
2023-04-26T09:56:19.656Z,5.72
2023-04-26T09:58:47.192Z,4.10
2023-04-26T10:01:17.868Z,3.25
2023-04-26T10:03:46.675Z,3.97
2023-04-26T10:06:15.278Z,4.13
2023-04-26T10:08:44.085Z,5.18
2023-04-26T10:11:12.705Z,4.45
2023-04-26T10:13:41.811Z,4.18
2023-04-26T10:16:10.173Z,3.53
2023-04-26T10:18:37.987Z,3.75
2023-04-26T10:21:14.866Z,6.88
2023-04-26T10:23:43.058Z,4.32
2023-04-26T10:26:49.460Z,4.20
2023-04-26T10:29:17.197Z,3.38
2023-04-26T10:32:02.910Z,3.60
2023-04-26T10:34:32.755Z,4.13
2023-04-26T10:37:17.158Z,3.42
2023-04-26T10:39:46.206Z,4.70
2023-04-26T10:42:27.532Z,2.92
2023-04-26T10:47:31.784Z,2.05
2023-04-26T10:50:10.090Z,3.00
2023-04-26T10:52:59.177Z,2.67
2023-04-26T10:55:42.687Z,2.65
2023-04-26T10:58:30.307Z,3.10
2023-04-26T11:01:13.827Z,3.22
2023-04-26T11:03:41.714Z,3.05
2023-04-26T11:06:13.716Z,2.97
2023-04-26T11:08:41.660Z,3.08
2023-04-26T11:11:13.611Z,4.45
2023-04-26T11:13:44.577Z,3.67
2023-04-26T11:16:16.862Z,3.88
2023-04-26T11:18:46.272Z,3.00
2023-04-26T11:21:17.755Z,3.88
2023-04-26T11:23:54.250Z,4.03
2023-04-26T11:26:22.290Z,3.75
2023-04-26T11:28:49.829Z,4.35
2023-04-26T11:31:19.281Z,4.85
2023-04-26T11:33:49.915Z,4.55
2023-04-26T11:36:19.628Z,4.43
2023-04-26T11:38:47.346Z,3.80
2023-04-26T11:41:14.973Z,3.42
2023-04-26T11:43:42.628Z,3.17
2023-04-26T11:46:10.465Z,3.63
2023-04-26T11:48:39.436Z,2.90
2023-04-26T11:51:08.587Z,2.85
2023-04-26T11:53:40.794Z,4.13
2023-04-26T11:56:21.944Z,3.60
2023-04-26T11:58:51.779Z,3.72
2023-04-26T12:01:29.416Z,3.22
2023-04-26T12:03:59.094Z,4.15
2023-04-26T12:06:41.732Z,6.30
2023-04-26T12:09:09.527Z,3.83
2023-04-26T12:11:37.648Z,5.00
2023-04-26T12:14:06.059Z,3.92
2023-04-26T12:16:36.680Z,5.07
2023-04-26T12:19:08.795Z,3.60
2023-04-26T12:21:43.830Z,4.43
2023-04-26T12:24:22.211Z,4.32
2023-04-26T12:26:49.760Z,5.47
2023-04-26T12:29:17.238Z,4.00
2023-04-26T12:31:47.004Z,4.60
2023-04-26T12:34:14.704Z,4.82
2023-04-26T12:36:45.436Z,3.97
2023-04-26T12:39:16.873Z,4.78
2023-04-26T12:41:46.182Z,5.22
2023-04-26T12:44:14.477Z,3.83
2023-04-26T12:46:42.110Z,4.43
2023-04-26T12:49:09.815Z,4.45
2023-04-26T12:51:37.314Z,6.18
2023-04-26T12:54:04.872Z,4.65
2023-04-26T12:56:34.053Z,4.95
2023-04-26T12:59:01.541Z,3.60
2023-04-26T13:01:29.079Z,4.43
2023-04-26T13:03:57.096Z,4.78
2023-04-26T13:06:25.003Z,3.03
2023-04-26T13:08:52.549Z,3.83
2023-04-26T13:11:20.070Z,4.50
2023-04-26T13:13:47.783Z,3.83
2023-04-26T13:16:15.349Z,3.28
2023-04-26T13:18:42.831Z,4.20
2023-04-26T13:21:10.587Z,3.17
2023-04-26T13:23:38.018Z,4.40
2023-04-26T13:26:05.573Z,5.32
2023-04-26T13:28:33.098Z,4.15
2023-04-26T13:31:00.765Z,4.65
2023-04-26T13:33:28.899Z,3.67
2023-04-26T13:35:56.382Z,3.97
2023-04-26T13:38:24.256Z,4.80
2023-04-26T13:40:52.179Z,3.65
2023-04-26T13:43:19.619Z,3.60
2023-04-26T13:45:47.108Z,4.72
2023-04-26T13:48:14.837Z,3.60
2023-04-26T13:50:42.479Z,5.57
2023-04-26T13:53:10.083Z,4.93
2023-04-26T13:55:37.766Z,4.07
2023-04-26T13:58:05.252Z,4.20
2023-04-26T14:00:32.783Z,4.03
2023-04-26T14:03:00.685Z,4.53
2023-04-26T14:05:28.280Z,4.40
2023-04-26T14:07:55.821Z,3.78
2023-04-26T14:10:23.575Z,5.65
2023-04-26T14:12:51.086Z,4.55
2023-04-26T14:15:18.881Z,3.67
2023-04-26T14:17:49.067Z,5.25
2023-04-26T14:20:16.535Z,4.60
2023-04-26T14:22:44.061Z,4.22
2023-04-26T14:25:11.773Z,3.80
2023-04-26T14:27:40.350Z,4.35
2023-04-26T14:30:08.345Z,3.65
2023-04-26T14:32:35.974Z,3.97
2023-04-26T14:35:03.853Z,3.67
2023-04-26T14:37:31.420Z,3.78
2023-04-26T14:39:58.911Z,3.63
2023-04-26T14:42:26.851Z,4.43
2023-04-26T14:44:54.463Z,4.43
2023-04-26T14:47:22.032Z,3.38
2023-04-26T14:49:49.627Z,4.20
2023-04-26T14:52:17.273Z,4.45
2023-04-26T14:54:44.732Z,4.15
2023-04-26T14:57:12.598Z,3.78
2023-04-26T14:59:40.108Z,4.18
2023-04-26T15:02:07.776Z,5.57
2023-04-26T15:04:37.458Z,4.95
2023-04-26T15:07:05.124Z,3.17
2023-04-26T15:09:32.968Z,4.38
2023-04-26T15:12:02.329Z,4.40
2023-04-26T15:14:29.933Z,6.25
2023-04-26T15:16:58.050Z,4.50
2023-04-26T15:19:25.721Z,3.80
2023-04-26T15:21:53.350Z,4.15
2023-04-26T15:24:20.901Z,3.22
2023-04-26T15:26:48.365Z,3.67
2023-04-26T15:29:15.815Z,4.43
2023-04-26T15:31:43.375Z,5.05
2023-04-26T15:34:10.904Z,3.80
2023-04-26T15:36:38.382Z,3.42
2023-04-26T15:39:06.108Z,3.63
2023-04-26T15:41:33.588Z,4.03
2023-04-26T15:44:01.508Z,3.13
2023-04-26T15:46:29.015Z,4.43
2023-04-26T15:48:56.842Z,3.83
2023-04-26T15:51:24.350Z,4.82
2023-04-26T15:53:51.809Z,4.10
2023-04-26T15:56:19.826Z,3.05
2023-04-26T15:58:47.835Z,3.55
2023-04-26T16:01:15.722Z,3.30
2023-04-26T16:03:47.161Z,3.63
2023-04-26T16:06:15.515Z,4.00
2023-04-26T16:08:43.387Z,5.22
2023-04-26T16:11:11.143Z,3.38
2023-04-26T16:13:38.656Z,3.10
2023-04-26T16:16:08.493Z,3.55
2023-04-26T16:18:36.613Z,3.95
2023-04-26T16:21:05.152Z,4.13
2023-04-26T16:23:33.029Z,3.40
2023-04-26T16:26:00.687Z,4.75
2023-04-26T16:28:28.237Z,3.40
2023-04-26T16:30:55.958Z,3.85
2023-04-26T16:33:23.995Z,4.43
2023-04-26T16:35:52.666Z,3.55
2023-04-26T16:38:20.643Z,3.72
2023-04-26T16:41:00.195Z,3.92
2023-04-26T16:43:30.236Z,4.07
2023-04-26T16:46:02.126Z,3.22
2023-04-26T16:48:37.555Z,3.38
2023-04-26T16:51:07.890Z,3.28
2023-04-26T16:53:36.104Z,3.77
2023-04-26T16:56:04.499Z,2.88
2023-04-26T16:58:32.130Z,3.22
2023-04-26T17:01:01.183Z,3.70
2023-04-26T17:03:28.866Z,4.30
2023-04-26T17:05:56.815Z,3.50
2023-04-26T17:08:24.294Z,2.83
2023-04-26T17:10:51.997Z,3.75
2023-04-26T17:13:19.811Z,3.08
2023-04-26T17:15:47.682Z,2.58
2023-04-26T17:18:15.136Z,4.05
2023-04-26T17:20:42.593Z,3.22
2023-04-26T17:23:10.120Z,3.47
2023-04-26T17:25:38.325Z,3.22
2023-04-26T17:28:05.856Z,3.75
2023-04-26T17:30:33.485Z,2.65
2023-04-26T17:33:01.169Z,2.67
2023-04-26T17:35:28.926Z,2.63
2023-04-26T17:37:57.273Z,2.72
2023-04-26T17:40:24.823Z,2.63
2023-04-26T17:42:52.257Z,2.85
2023-04-26T17:45:19.829Z,2.92
2023-04-26T17:47:47.564Z,2.47
2023-04-26T17:50:15.648Z,2.42
2023-04-26T17:52:43.495Z,3.72
2023-04-26T17:55:11.245Z,4.00
2023-04-26T17:57:38.746Z,3.80
2023-04-26T18:00:06.867Z,3.83
2023-04-26T18:02:37.507Z,3.28
2023-04-26T18:05:08.461Z,3.13
2023-04-26T18:07:36.302Z,2.45
2023-04-26T18:10:04.225Z,2.90
2023-04-26T18:12:32.898Z,2.85
2023-04-26T18:15:00.905Z,4.00
2023-04-26T18:17:28.398Z,2.75
2023-04-26T18:19:56.418Z,3.50
2023-04-26T18:22:23.930Z,2.85
2023-04-26T18:24:51.468Z,3.38
2023-04-26T18:27:19.937Z,3.05
2023-04-26T18:29:49.294Z,2.40
